Elmsford, New York
Current Conditions -  °F | °C
As of 1:56 AM on Sunday 21 Dec 2014 (Local Time) from KHPN Reporting Station
Overcast Overcast  
Wind Chill: 23°   Ceiling: 3200
Heat Index: 29°   Visibility: 10mi
Dew Point: 24°   Wind: 6mph
Humidity: 82%   Direction: 330°NNW
Pressure: 30.25"   Gusts: NA
Location:  41.06°N, 73.82°W
Report Text: KHPN 210656Z 33005KT 10SM SCT022 OVC032 M02/M04 A3025 RMK AO2 SLP252 T10171044
Loading
Personal Weather Stations






























Interactive Weather Map New forecast layout! Learn more

10-Day Weather Forecast

Advertisements
Track Severe Weather on mobile